Flight Track Log - Related Links

Times and Time Zones

All times are in EDT time to prevent confusion due to time zone crossing. See the EGF4603 flight status page for this flight to view local times or setup timezone preferences in your user account.

Time Position Orientation Groundspeed Altitude Reporting Facility
EDT Latitude Longitude Course Direction KTS MPH feet Rate Location/Type
Sat 04:54:37 PM 35.1928 -80.9356 90° East 155 178 1,900  Level Atlanta Center
Sat 04:55:20 PM 35.1575 -80.9344 179° South 184 212 3,400 2,642 Climbing Atlanta Center
Sat 04:56:00 PM 35.0990 -80.7400 80° East  Level FlightAware Approximate
Sat 04:56:26 PM 35.1039 -80.8781 139° Southeast 249 287 6,700  Level Atlanta Center
Sat 04:57:00 PM 35.1240 -80.6173 29° Northeast  Level FlightAware Approximate
Sat 04:57:15 PM 35.0958 -80.8097 98° East 277 319 9,000  Level Atlanta Center
Sat 04:57:59 PM 35.1194 -80.7556 62° Northeast 294 338 10,700 2,164 Climbing Atlanta Center
Sat 04:58:00 PM 35.2243 -80.5493 30° Northeast  Level FlightAware Approximate
Sat 04:58:16 PM 35.1372 -80.7217 57° Northeast 317 365 11,200  Level Atlanta Center
Sat 04:58:59 PM 35.1728 -80.6492 59° Northeast 355 409 12,600 2,097 Climbing Atlanta Center
Sat 04:59:00 PM 35.3167 -80.4739 90° East  Level FlightAware Approximate
Sat 04:59:59 PM 35.2283 -80.5453 57° Northeast 370 426 14,800  Level Atlanta Center
Sat 05:02:11 PM 35.3561 -80.2983 58° Northeast 385 443 19,000 1,938 Climbing Washington Center
Sat 05:03:11 PM 35.4172 -80.1769 58° Northeast 408 470 21,000 1,700 Climbing Washington Center
Sat 05:04:11 PM 35.4600 -80.0394 69° East 420 483 22,400 1,450 Climbing Washington Center
Sat 05:05:11 PM 35.4986 -79.8908 72° East 437 503 23,900 1,500 Climbing Washington Center
Sat 05:06:11 PM 35.5353 -79.7397 73° East 447 514 25,400 1,650 Climbing Washington Center
Sat 05:07:11 PM 35.5831 -79.5686 71° East 467 537 27,200 1,600 Climbing Washington Center
Sat 05:08:11 PM 35.6233 -79.4147 72° East 474 545 28,600 1,350 Climbing Washington Center
Sat 05:09:11 PM 35.6694 -79.2814 67° East 469 540 29,900 1,200 Climbing Washington Center
Sat 05:10:11 PM 35.6658 -79.1203 92° East 460 529 31,000 550 Climbing Washington Center
Sat 05:11:11 PM 35.6603 -78.9486 92° East 472 543 31,000 450 Level Washington Center
Sat 05:12:11 PM 35.7169 -78.7925 66° East 487 560 31,900 950 Climbing Washington Center
Sat 05:13:11 PM 35.8281 -78.6919 36° Northeast 456 525 32,900 550 Climbing Washington Center
Sat 05:14:11 PM 35.9331 -78.5856 39° Northeast 465 535 33,000 50 Climbing Washington Center
Sat 05:15:11 PM 36.0400 -78.4767 39° Northeast 476 548 33,000  Level Washington Center
Sat 05:16:11 PM 36.1425 -78.3725 39° Northeast 481 554 33,000  Level Washington Center
Sat 05:17:11 PM 36.2472 -78.2653 40° Northeast 481 554 33,000  Level Washington Center
Sat 05:18:11 PM 36.3497 -78.1581 40° Northeast 486 559 33,000  Level Washington Center
Sat 05:19:11 PM 36.4500 -78.0503 41° Northeast 486 559 33,000  Level Washington Center
Sat 05:20:11 PM 36.5544 -77.9397 40° Northeast 486 559 33,000  Level Washington Center
Sat 05:21:11 PM 36.6611 -77.8264 40° Northeast 493 567 33,000  Level Washington Center
Sat 05:22:11 PM 36.7653 -77.7181 40° Northeast 493 567 33,000  Level Washington Center
Sat 05:23:11 PM 36.8733 -77.6169 37° Northeast 488 562 33,000  Level Washington Center
Sat 05:24:11 PM 36.9833 -77.5236 34° Northeast 482 555 33,000  Level Washington Center
Sat 05:25:11 PM 37.0933 -77.4328 33° Northeast 477 549 33,000  Level Washington Center
Sat 05:26:11 PM 37.2011 -77.3414 34° Northeast 471 542 33,000  Level Washington Center
Sat 05:27:11 PM 37.3150 -77.2447 34° Northeast 471 542 33,000  Level Washington Center
Sat 05:28:11 PM 37.4375 -77.1378 35° Northeast 482 555 33,000  Level Washington Center
Sat 05:29:11 PM 37.5428 -77.0533 32° Northeast 487 560 33,000  Level Washington Center
Sat 05:30:11 PM 37.6503 -76.9583 35° Northeast 481 554 33,000  Level Washington Center
Sat 05:31:11 PM 37.7578 -76.8631 35° Northeast 476 548 33,000  Level Washington Center
Sat 05:32:11 PM 37.8672 -76.7675 35° Northeast 471 542 33,000  Level Washington Center
Sat 05:33:11 PM 37.9764 -76.6719 35° Northeast 471 542 33,000  Level Washington Center
Sat 05:34:11 PM 38.0878 -76.5758 34° Northeast 476 548 33,000  Level Washington Center
Sat 05:35:11 PM 38.1950 -76.4794 35° Northeast 476 548 33,000  Level Washington Center
Sat 05:36:11 PM 38.3186 -76.3725 34° Northeast 476 548 33,000  Level Washington Center
Sat 05:37:11 PM 38.4278 -76.2728 36° Northeast 476 548 33,000  Level Washington Center
Sat 05:38:11 PM 38.5389 -76.1703 36° Northeast 476 548 33,000 -500 Level Washington Center
Sat 05:39:11 PM 38.6308 -76.0858 36° Northeast 471 542 32,000 -1,400 Descending Washington Center
Sat 05:40:11 PM 38.7397 -75.9856 36° Northeast 471 542 30,200 -1,800 Descending Washington Center
Sat 05:41:11 PM 38.8461 -75.8822 37° Northeast 471 542 28,400 -1,600 Descending Washington Center
Sat 05:42:11 PM 38.9506 -75.7839 36° Northeast 471 542 27,000 -700 Descending Washington Center
Sat 05:43:11 PM 39.0550 -75.6878 36° Northeast 471 542 27,000  Level Washington Center
Sat 05:44:11 PM 39.1592 -75.5864 37° Northeast 471 542 27,000 -595 Level Washington Center
Sat 05:45:12 PM 39.2656 -75.4897 35° Northeast 465 535 25,800 -1,350 Descending Washington Center
Sat 05:46:11 PM 39.3675 -75.3983 35° Northeast 460 529 24,300 -1,513 Descending Washington Center
Sat 05:47:11 PM 39.4653 -75.3119 34° Northeast 441 507 22,800 -1,500 Descending Washington Center
Sat 05:48:11 PM 39.5608 -75.2228 36° Northeast 431 496 21,300 -1,650 Descending Washington Center
Sat 05:49:11 PM 39.6606 -75.1306 35° Northeast 405 466 19,500 -1,700 Descending Washington Center
Sat 05:50:11 PM 39.7436 -75.0572 34° Northeast 399 459 17,900 -1,550 Descending Washington Center
Sat 05:51:11 PM 39.8411 -74.9753 33° Northeast 389 448 16,400 -1,650 Descending Washington Center
Sat 05:52:11 PM 39.9178 -74.8989 37° Northeast 389 448 14,600 -1,850 Descending Washington Center
Sat 05:53:11 PM 39.9964 -74.7953 45° Northeast 375 432 12,700 -1,985 Descending Washington Center
Sat 05:54:21 PM 40.0833 -74.6833 45° Northeast 353 406 10,300 -1,246 Descending New York TRACON
Sat 05:55:21 PM 40.1500 -74.5833 49° Northeast 357 411 10,000 -150 Descending New York TRACON
Sat 05:56:21 PM 40.2167 -74.4833 49° Northeast 354 407 10,000  Level New York TRACON
Sat 05:57:21 PM 40.2833 -74.4000 44° Northeast 354 407 10,000 -150 Level New York TRACON
Sat 05:58:21 PM 40.3500 -74.3167 44° Northeast 334 384 9,700 -526 Descending New York TRACON
Sat 05:59:15 PM 40.4000 -74.2500 45° Northeast 290 334 9,000 -1,105 Descending New York TRACON
Sat 06:00:15 PM 40.4500 -74.1833 45° Northeast 276 318 7,600 -1,476 Descending New York TRACON
Sat 06:01:21 PM 40.5167 -74.1167 37° Northeast 259 298 5,900 -1,476 Descending New York TRACON
Sat 06:02:21 PM 40.5833 -74.0667 30° Northeast 261 300 4,500 -950 Descending New York TRACON
Sat 06:03:21 PM 40.6500 -74.0500 11° North 259 298 4,000 -250 Descending New York TRACON
Sat 06:04:21 PM 40.7167 -74.0333 11° North 250 288 4,000  Level New York TRACON
Sat 06:05:21 PM 40.7833 -74.0000 21° North 264 304 4,000  Level New York TRACON
Sat 06:06:21 PM 40.8500 -73.9500 30° Northeast 269 310 4,000  Level New York TRACON

Login

Don't have an account? Register now (free) for customized features, flight alerts, and more!